Time;durP1;ratioP1;P1;durP2;ratioP2;P2;SDS_P1;SDS_P2;PMS_P1;PMS_P2;Temp;Humidity;BMP_temperature;BMP_pressure;BME280_temperature;BME280_humidity;BME280_pressure;Samples;Min_cycle;Max_cycle;Signal;HPM_P1;HPM_P2
2021/03/09 00:01:23;;;;;;;4.95;1.80;;;-5.00;99.90;;;;;;5020399;28;20309;-71
2021/03/09 00:03:48;;;;;;;3.97;1.97;;;-4.90;99.90;;;;;;5023836;28;20220;-69
2021/03/09 00:06:14;;;;;;;10.93;1.50;;;-4.90;99.90;;;;;;5022508;28;20206;-69
2021/03/09 00:08:40;;;;;;;2.28;1.42;;;-4.80;99.90;;;;;;5017675;28;20688;-72
2021/03/09 00:11:05;;;;;;;2.50;1.60;;;-4.80;99.90;;;;;;5018133;28;20201;-71
2021/03/09 00:13:31;;;;;;;2.55;1.45;;;-4.80;99.90;;;;;;5019371;28;20197;-69
2021/03/09 00:15:57;;;;;;;3.83;1.70;;;-4.80;99.90;;;;;;5017815;28;20198;-69
2021/03/09 00:18:23;;;;;;;3.88;1.40;;;-4.80;99.90;;;;;;5002441;28;20193;-70
2021/03/09 00:20:48;;;;;;;2.67;1.33;;;-4.80;99.90;;;;;;5018611;28;20257;-69
2021/03/09 00:23:14;;;;;;;1.40;1.13;;;-4.80;99.90;;;;;;5019823;28;20228;-69
2021/03/09 00:25:40;;;;;;;3.92;1.42;;;-4.60;99.90;;;;;;5017574;28;20256;-71
2021/03/09 00:28:05;;;;;;;4.60;1.67;;;-4.50;99.90;;;;;;5019640;28;20217;-70
2021/03/09 00:30:31;;;;;;;5.50;1.52;;;-4.40;99.90;;;;;;5019036;28;20220;-69
2021/03/09 00:32:57;;;;;;;2.85;1.60;;;-4.40;99.90;;;;;;5003524;28;20190;-69
2021/03/09 00:35:22;;;;;;;4.70;1.50;;;-4.40;99.90;;;;;;5020569;28;20293;-69
2021/03/09 00:37:48;;;;;;;1.70;1.38;;;-4.40;99.90;;;;;;5020375;28;20202;-70
2021/03/09 00:40:14;;;;;;;2.40;1.50;;;-4.40;99.90;;;;;;5020472;28;20202;-70
2021/03/09 00:42:40;;;;;;;2.07;1.27;;;-4.30;99.90;;;;;;5020479;28;20202;-72
2021/03/09 00:45:06;;;;;;;7.37;1.57;;;-4.30;99.90;;;;;;5019883;28;20250;-69
2021/03/09 00:47:32;;;;;;;2.67;1.35;;;-4.20;99.90;;;;;;5021191;28;20190;-69
2021/03/09 00:49:59;;;;;;;3.95;1.45;;;-4.10;99.90;;;;;;5002825;28;21103;-69
2021/03/09 00:52:25;;;;;;;4.13;1.30;;;-4.00;99.90;;;;;;5019838;28;20978;-69
2021/03/09 00:54:50;;;;;;;5.53;1.83;;;-4.00;99.90;;;;;;5002048;28;20190;-69
2021/03/09 00:57:16;;;;;;;2.45;1.50;;;-3.90;99.90;;;;;;5009788;28;20668;-70
2021/03/09 00:59:42;;;;;;;5.72;1.58;;;-3.90;99.90;;;;;;5017823;28;20206;-72
2021/03/09 01:02:08;;;;;;;6.75;1.77;;;-3.90;99.90;;;;;;5021104;28;20236;-70
2021/03/09 01:04:33;;;;;;;1.95;1.48;;;-3.80;99.90;;;;;;5019263;28;20201;-70
2021/03/09 01:06:59;;;;;;;4.80;1.40;;;-3.80;99.90;;;;;;5019579;28;20293;-70
2021/03/09 01:09:25;;;;;;;1.58;1.33;;;-3.70;99.90;;;;;;5019167;28;20234;-70
2021/03/09 01:11:51;;;;;;;6.18;1.67;;;-3.80;99.90;;;;;;5018923;28;20233;-69
2021/03/09 01:14:17;;;;;;;7.13;1.40;;;-3.70;99.90;;;;;;5019641;28;20230;-69
2021/03/09 01:16:42;;;;;;;8.88;1.50;;;-3.70;99.90;;;;;;5019669;28;21000;-71
2021/03/09 01:19:08;;;;;;;4.38;1.50;;;-3.70;99.90;;;;;;5020629;28;20312;-71
2021/03/09 01:21:34;;;;;;;4.25;1.50;;;-3.70;99.90;;;;;;5018260;28;20202;-70
2021/03/09 01:24:00;;;;;;;8.77;1.60;;;-3.60;99.90;;;;;;5019983;28;20197;-70
2021/03/09 01:26:26;;;;;;;5.93;1.77;;;-3.60;99.90;;;;;;5002110;28;20351;-70
2021/03/09 01:28:52;;;;;;;2.72;1.30;;;-3.60;99.90;;;;;;5018065;28;20213;-71
2021/03/09 01:31:17;;;;;;;8.25;1.85;;;-3.60;99.90;;;;;;5019097;28;20206;-72
2021/03/09 01:33:43;;;;;;;2.53;1.60;;;-3.60;99.90;;;;;;5033652;28;20263;-71
2021/03/09 01:36:09;;;;;;;4.43;1.60;;;-3.50;99.90;;;;;;5020810;28;20202;-70
2021/03/09 01:38:35;;;;;;;5.20;1.40;;;-3.50;99.90;;;;;;5021959;28;20210;-69
2021/03/09 01:41:01;;;;;;;3.22;1.55;;;-3.50;99.90;;;;;;5035721;28;20718;-71
2021/03/09 01:43:26;;;;;;;2.38;1.52;;;-3.50;99.90;;;;;;5021957;28;20293;-69
2021/03/09 01:45:52;;;;;;;7.43;1.60;;;-3.50;99.90;;;;;;5022456;28;20293;-69
2021/03/09 01:48:21;;;;;;;2.88;1.60;;;-3.40;99.90;;;;;;5023228;28;20730;-70
2021/03/09 01:50:48;;;;;;;9.38;1.40;;;-3.40;99.90;;;;;;5014756;28;20199;-70
2021/03/09 01:53:16;;;;;;;8.25;1.40;;;-3.40;99.90;;;;;;5022255;28;20336;-69
2021/03/09 01:55:42;;;;;;;4.50;1.67;;;-3.30;99.90;;;;;;5024626;28;20290;-71
2021/03/09 01:58:12;;;;;;;1.80;1.30;;;-3.30;99.90;;;;;;5006134;28;20991;-70
2021/03/09 02:00:41;;;;;;;2.42;1.60;;;-3.30;99.90;;;;;;5023278;28;20206;-72
2021/03/09 02:03:07;;;;;;;3.58;1.30;;;-3.30;99.90;;;;;;5004848;28;21138;-72
2021/03/09 02:05:33;;;;;;;3.28;1.58;;;-3.30;99.90;;;;;;5065163;23;20752;-69
2021/03/09 02:07:59;;;;;;;2.28;1.52;;;-3.20;99.90;;;;;;5063896;28;20204;-67
2021/03/09 02:10:26;;;;;;;1.70;1.40;;;-3.20;99.90;;;;;;5061137;28;20327;-70
2021/03/09 02:13:13;;;;;;;3.00;1.52;;;-3.20;99.90;;;;;;5061726;28;20192;-67
2021/03/09 02:16:13;;;;;;;5.22;1.50;;;-3.20;99.90;;;;;;5045703;28;20202;-69
2021/03/09 02:18:49;;;;;;;2.70;1.40;;;-3.20;99.90;;;;;;5061410;28;20280;-68
2021/03/09 02:21:49;;;;;;;3.10;1.40;;;-3.20;99.90;;;;;;5058750;28;20193;-66
2021/03/09 02:24:27;;;;;;;2.78;1.48;;;-3.10;99.90;;;;;;5061640;28;20203;-67
2021/03/09 02:27:21;;;;;;;10.35;1.50;;;-3.10;99.90;;;;;;5060842;28;20200;-70
2021/03/09 02:29:50;;;;;;;3.65;1.30;;;-3.10;99.90;;;;;;5042320;28;20761;-69
2021/03/09 02:32:24;;;;;;;7.45;1.52;;;-3.10;99.90;;;;;;5059812;28;20660;-71
2021/03/09 02:34:55;;;;;;;3.30;1.27;;;-3.00;99.90;;;;;;5062253;28;20196;-71
2021/03/09 02:37:23;;;;;;;3.13;1.30;;;-3.00;99.90;;;;;;5042111;28;20201;-72
2021/03/09 02:39:49;;;;;;;6.00;1.40;;;-3.00;99.90;;;;;;5061323;28;20185;-71
2021/03/09 02:42:22;;;;;;;2.17;1.38;;;-3.00;99.90;;;;;;5062108;28;20792;-69
2021/03/09 02:44:52;;;;;;;2.75;1.35;;;-2.90;99.90;;;;;;5059767;28;20318;-70
2021/03/09 02:47:19;;;;;;;1.80;1.20;;;-2.90;99.90;;;;;;5062122;28;20245;-68
2021/03/09 02:49:45;;;;;;;1.70;1.25;;;-2.90;99.90;;;;;;5061091;28;20205;-68
2021/03/09 02:52:20;;;;;;;6.05;1.17;;;-2.90;99.90;;;;;;5052239;28;20217;-70
2021/03/09 02:54:47;;;;;;;4.53;1.40;;;-2.90;99.90;;;;;;5062033;28;20250;-69
2021/03/09 02:57:15;;;;;;;2.80;1.50;;;-2.90;99.90;;;;;;5060996;28;20593;-69
2021/03/09 02:59:42;;;;;;;8.43;1.60;;;-2.90;99.90;;;;;;5061386;28;20228;-71
2021/03/09 03:02:09;;;;;;;2.22;1.50;;;-2.90;99.90;;;;;;5060189;28;20721;-69
2021/03/09 03:04:35;;;;;;;3.22;1.55;;;-2.90;99.90;;;;;;5055494;28;20228;-68
2021/03/09 03:07:02;;;;;;;3.65;1.35;;;-2.80;99.90;;;;;;5050196;28;20686;-68
2021/03/09 03:09:29;;;;;;;4.05;1.50;;;-2.80;99.90;;;;;;5053181;28;20612;-68
2021/03/09 03:11:55;;;;;;;6.28;1.50;;;-2.80;99.90;;;;;;5054019;28;20204;-69
2021/03/09 03:14:22;;;;;;;7.90;1.80;;;-2.80;99.90;;;;;;5048783;28;20205;-70
2021/03/09 03:16:49;;;;;;;2.95;1.40;;;-2.70;99.90;;;;;;5044016;28;20205;-70
2021/03/09 03:19:16;;;;;;;2.88;1.40;;;-2.70;99.90;;;;;;5049750;28;20202;-68
2021/03/09 03:21:44;;;;;;;2.75;1.55;;;-2.70;99.90;;;;;;5037153;28;20317;-68
2021/03/09 03:24:11;;;;;;;1.92;1.30;;;-2.70;99.90;;;;;;5042716;28;20668;-66
2021/03/09 03:26:40;;;;;;;3.42;1.40;;;-2.60;99.90;;;;;;5046954;28;20197;-67
2021/03/09 03:29:07;;;;;;;3.05;1.40;;;-2.60;99.90;;;;;;5034376;28;20547;-70
2021/03/09 03:31:34;;;;;;;1.38;1.10;;;-2.50;99.90;;;;;;5048254;28;20526;-68
2021/03/09 03:36:30;;;;;;;3.42;1.23;;;-2.50;99.90;;;;;;4991178;28;20226;-82
2021/03/09 03:38:56;;;;;;;4.85;1.40;;;-2.50;99.90;;;;;;5002531;28;20261;-84
2021/03/09 03:41:22;;;;;;;6.38;1.40;;;-2.40;99.90;;;;;;4988839;28;20233;-82
2021/03/09 03:43:48;;;;;;;1.77;1.20;;;-2.40;99.90;;;;;;5000250;28;20239;-83
2021/03/09 03:46:13;;;;;;;2.50;1.30;;;-2.40;99.90;;;;;;5013239;28;20324;-83
2021/03/09 03:48:39;;;;;;;4.50;1.70;;;-2.40;99.90;;;;;;5002710;28;20294;-82
2021/03/09 03:51:11;;;;;;;4.97;1.33;;;-2.40;99.90;;;;;;5010557;28;20300;-82
2021/03/09 03:54:18;;;;;;;4.60;1.20;;;-2.40;99.90;;;;;;5019171;28;20205;-84
2021/03/09 03:57:09;;;;;;;3.58;1.30;;;-2.30;99.90;;;;;;4944415;28;20663;-83
2021/03/09 03:59:44;;;;;;;3.92;1.20;;;-2.30;99.90;;;;;;5019659;28;20368;-83
2021/03/09 04:02:12;;;;;;;8.27;1.42;;;-2.30;99.90;;;;;;5018546;28;20211;-82
2021/03/09 04:04:39;;;;;;;2.22;1.40;;;-2.30;99.90;;;;;;5022675;28;20326;-85
2021/03/09 04:07:07;;;;;;;1.80;1.15;;;-2.30;99.90;;;;;;5019361;28;20210;-84
2021/03/09 04:09:34;;;;;;;2.10;1.10;;;-2.30;99.90;;;;;;5003145;28;20211;-83
2021/03/09 04:12:01;;;;;;;4.03;1.55;;;-2.30;99.90;;;;;;5017989;28;20213;-85
2021/03/09 04:14:32;;;;;;;2.80;1.25;;;-2.30;99.90;;;;;;5009565;28;20187;-83
2021/03/09 04:16:59;;;;;;;5.97;1.20;;;-2.30;99.90;;;;;;5022137;28;20217;-85
2021/03/09 04:19:26;;;;;;;3.08;1.30;;;-2.30;99.90;;;;;;5015757;28;20205;-84
2021/03/09 04:21:52;;;;;;;2.42;1.17;;;-2.20;99.90;;;;;;5000418;28;20194;-84
2021/03/09 04:24:19;;;;;;;4.10;1.20;;;-2.20;99.90;;;;;;5002443;28;20209;-82
2021/03/09 04:26:46;;;;;;;9.32;1.60;;;-2.20;99.90;;;;;;5020799;28;20648;-84
2021/03/09 04:29:13;;;;;;;1.40;1.30;;;-2.20;99.90;;;;;;5020843;28;20220;-81
2021/03/09 04:31:41;;;;;;;4.00;1.30;;;-2.20;99.90;;;;;;5019244;28;20666;-84
2021/03/09 04:34:08;;;;;;;2.08;1.13;;;-2.20;99.90;;;;;;5009141;28;20191;-84
2021/03/09 04:36:34;;;;;;;6.68;1.48;;;-2.20;99.90;;;;;;5019836;28;20302;-83
2021/03/09 04:39:04;;;;;;;1.90;1.40;;;-2.20;99.90;;;;;;5017622;28;20665;-85
2021/03/09 04:41:31;;;;;;;2.97;1.70;;;-2.20;99.90;;;;;;5021308;28;20199;-85
2021/03/09 04:43:58;;;;;;;1.98;1.20;;;-2.30;99.90;;;;;;5017833;28;20800;-82
2021/03/09 04:46:24;;;;;;;3.58;1.20;;;-2.30;99.90;;;;;;5002331;28;20245;-86
2021/03/09 04:48:51;;;;;;;5.72;1.45;;;-2.30;99.90;;;;;;5009537;28;20280;-88
2021/03/09 04:51:18;;;;;;;1.52;1.17;;;-2.30;99.90;;;;;;5022558;28;20194;-86
2021/03/09 04:53:45;;;;;;;2.70;1.35;;;-2.30;99.90;;;;;;5004801;28;20244;-86
2021/03/09 04:56:11;;;;;;;6.43;1.30;;;-2.30;99.90;;;;;;5006687;28;20773;-85
2021/03/09 04:58:37;;;;;;;4.28;1.30;;;-2.30;99.90;;;;;;5004420;28;20206;-85
2021/03/09 05:01:04;;;;;;;1.52;1.13;;;-2.30;99.90;;;;;;5016637;28;20248;-84
2021/03/09 05:03:31;;;;;;;4.20;1.77;;;-2.20;99.90;;;;;;5009761;28;20675;-87
2021/03/09 05:05:57;;;;;;;4.32;1.45;;;-2.20;99.90;;;;;;5005023;28;20615;-87
2021/03/09 05:08:24;;;;;;;6.85;1.40;;;-2.20;99.90;;;;;;5006642;28;20226;-85
2021/03/09 05:10:51;;;;;;;3.72;1.30;;;-2.20;99.90;;;;;;5004232;28;20847;-84
2021/03/09 05:13:18;;;;;;;1.55;1.45;;;-2.20;99.90;;;;;;5028662;28;20206;-83
2021/03/09 05:15:43;;;;;;;2.45;1.50;;;-2.20;99.90;;;;;;5029426;28;20277;-84
2021/03/09 05:18:09;;;;;;;2.20;1.40;;;-2.20;99.90;;;;;;5012545;28;20713;-86
2021/03/09 05:20:36;;;;;;;3.65;2.55;;;-2.10;99.90;;;;;;5012920;28;20579;-85
2021/03/09 05:23:02;;;;;;;3.25;1.73;;;-2.10;99.90;;;;;;5023236;28;20201;-83
2021/03/09 05:25:28;;;;;;;7.40;2.45;;;-2.10;99.90;;;;;;5007800;28;20194;-86
2021/03/09 05:27:54;;;;;;;4.93;2.38;;;-2.10;99.90;;;;;;5027665;28;20648;-86
2021/03/09 05:30:21;;;;;;;2.30;1.50;;;-2.10;99.90;;;;;;5023559;28;20209;-84
2021/03/09 05:32:47;;;;;;;4.32;1.88;;;-2.10;99.90;;;;;;5028246;28;20247;-85
2021/03/09 05:35:15;;;;;;;4.95;1.85;;;-2.10;99.90;;;;;;5023207;28;20231;-83
2021/03/09 05:37:42;;;;;;;3.83;1.85;;;-2.20;99.90;;;;;;5009938;28;20226;-85
2021/03/09 05:40:10;;;;;;;6.78;1.95;;;-2.20;99.90;;;;;;5025843;28;20194;-85
2021/03/09 05:42:36;;;;;;;3.30;1.27;;;-2.20;99.90;;;;;;5008784;28;20287;-84
2021/03/09 05:45:04;;;;;;;3.25;1.30;;;-2.20;99.90;;;;;;5001667;28;20199;-84
2021/03/09 05:47:30;;;;;;;3.42;1.33;;;-2.20;99.90;;;;;;5001474;28;20207;-84
2021/03/09 05:49:58;;;;;;;2.42;1.73;;;-2.20;99.90;;;;;;5023945;28;20221;-84
2021/03/09 05:52:24;;;;;;;5.82;2.03;;;-2.20;99.90;;;;;;5008491;28;20269;-84
2021/03/09 05:54:49;;;;;;;1.50;1.40;;;-2.20;99.90;;;;;;5012387;28;20213;-85
2021/03/09 05:57:15;;;;;;;1.65;1.10;;;-2.20;99.90;;;;;;5029308;28;20594;-87
2021/03/09 05:59:43;;;;;;;3.78;1.52;;;-2.20;99.90;;;;;;5027265;28;20202;-86
2021/03/09 06:02:09;;;;;;;1.55;1.30;;;-2.30;99.90;;;;;;5012965;28;20194;-85
2021/03/09 06:04:35;;;;;;;2.80;1.20;;;-2.40;99.90;;;;;;5010885;28;20636;-85
2021/03/09 06:07:02;;;;;;;4.60;1.10;;;-2.50;99.90;;;;;;5029568;28;20190;-85
2021/03/09 06:09:33;;;;;;;3.35;1.23;;;-2.50;99.90;;;;;;5008095;28;20217;-84
2021/03/09 06:12:20;;;;;;;10.10;1.50;;;-2.50;99.90;;;;;;5022500;28;20193;-85
2021/03/09 06:15:01;;;;;;;7.43;1.27;;;-2.50;99.90;;;;;;5007222;28;20198;-85
2021/03/09 06:17:35;;;;;;;3.28;1.42;;;-2.60;99.90;;;;;;5030775;28;20202;-85
2021/03/09 06:20:03;;;;;;;2.45;1.33;;;-2.60;99.90;;;;;;5029986;28;20259;-85
2021/03/09 06:22:46;;;;;;;3.83;1.30;;;-2.70;99.90;;;;;;5027276;28;20209;-85
2021/03/09 06:25:17;;;;;;;6.15;1.90;;;-2.60;99.90;;;;;;5032808;28;20205;-85
2021/03/09 06:27:43;;;;;;;3.00;1.60;;;-2.70;99.90;;;;;;5025957;28;20207;-82
2021/03/09 06:30:14;;;;;;;2.63;1.20;;;-2.70;99.90;;;;;;5012869;28;20231;-85
2021/03/09 06:32:45;;;;;;;3.35;1.40;;;-2.70;99.90;;;;;;5035837;28;20189;-85
2021/03/09 06:35:34;;;;;;;2.58;1.27;;;-2.70;99.90;;;;;;5031345;28;20222;-84
2021/03/09 06:38:21;;;;;;;5.60;2.00;;;-2.80;99.90;;;;;;5016244;28;20612;-85
2021/03/09 06:41:15;;;;;;;5.40;2.20;;;-2.80;99.90;;;;;;5029358;28;20693;-84
2021/03/09 06:44:02;;;;;;;6.55;2.10;;;-2.80;99.90;;;;;;5032074;28;20527;-84
2021/03/09 06:46:28;;;;;;;5.95;2.13;;;-2.90;99.90;;;;;;5032513;28;20186;-85
2021/03/09 06:49:02;;;;;;;2.58;1.60;;;-2.90;99.90;;;;;;5024600;28;20302;-84
2021/03/09 06:51:30;;;;;;;2.95;1.70;;;-2.80;99.90;;;;;;5014535;28;20629;-84
2021/03/09 06:54:04;;;;;;;5.57;1.52;;;-2.80;99.90;;;;;;5015533;28;20225;-85
2021/03/09 06:56:30;;;;;;;6.78;1.58;;;-2.70;99.90;;;;;;5034191;28;20601;-84
2021/03/09 06:58:56;;;;;;;1.92;1.40;;;-2.50;99.90;;;;;;5031529;28;20231;-84
2021/03/09 07:01:23;;;;;;;3.30;1.10;;;-2.30;99.90;;;;;;5016410;28;20212;-84
2021/03/09 07:03:48;;;;;;;4.00;1.50;;;-2.10;99.90;;;;;;5022829;28;20198;-85
2021/03/09 07:06:14;;;;;;;3.28;1.35;;;-1.90;99.90;;;;;;5031501;28;20206;-85
2021/03/09 07:08:40;;;;;;;1.75;1.40;;;-1.70;99.90;;;;;;5030257;28;20202;-84
2021/03/09 07:11:06;;;;;;;14.52;2.50;;;-1.60;99.90;;;;;;5029621;28;20190;-85
2021/03/09 07:13:33;;;;;;;5.13;1.92;;;-1.50;99.90;;;;;;5014537;28;20202;-86
2021/03/09 07:16:01;;;;;;;3.22;2.00;;;-1.30;99.90;;;;;;5013984;28;20194;-85
2021/03/09 07:18:28;;;;;;;6.30;2.40;;;-1.20;99.90;;;;;;5032749;28;20224;-84
2021/03/09 07:20:55;;;;;;;3.03;2.10;;;-1.10;99.90;;;;;;5007789;28;20194;-85
2021/03/09 07:23:23;;;;;;;3.10;1.17;;;-1.00;99.90;;;;;;5032140;28;20217;-84
2021/03/09 07:25:58;;;;;;;7.22;1.73;;;-1.00;99.90;;;;;;5014182;28;20194;-85
2021/03/09 07:28:35;;;;;;;1.80;1.50;;;-0.90;99.90;;;;;;5009780;28;20210;-85
2021/03/09 07:31:03;;;;;;;2.25;1.50;;;-0.90;99.90;;;;;;5021315;28;20202;-85
2021/03/09 07:33:30;;;;;;;3.10;1.45;;;-0.90;99.90;;;;;;5027113;28;20227;-86
2021/03/09 07:35:57;;;;;;;3.53;1.20;;;-0.80;99.90;;;;;;5021357;28;20227;-86
2021/03/09 07:38:24;;;;;;;2.63;1.35;;;-0.80;99.90;;;;;;5015318;28;20202;-87
2021/03/09 07:40:50;;;;;;;1.88;1.15;;;-0.80;99.90;;;;;;5008902;28;20197;-85
2021/03/09 07:43:16;;;;;;;1.52;1.25;;;-0.90;99.90;;;;;;5011804;28;20766;-84
2021/03/09 07:45:43;;;;;;;2.35;1.50;;;-1.00;99.90;;;;;;5011501;28;20202;-83
2021/03/09 07:48:11;;;;;;;4.88;1.40;;;-1.10;99.90;;;;;;5025285;28;20596;-83
2021/03/09 07:50:42;;;;;;;3.50;1.20;;;-1.20;99.90;;;;;;5011573;28;21194;-83
2021/03/09 07:53:16;;;;;;;4.15;1.40;;;-1.20;99.90;;;;;;5023139;28;20364;-83
2021/03/09 07:55:45;;;;;;;1.65;1.27;;;-1.20;99.90;;;;;;5012649;28;20190;-84
2021/03/09 07:58:20;;;;;;;2.30;1.08;;;-1.10;99.90;;;;;;5009449;28;20198;-85
2021/03/09 08:00:58;;;;;;;1.13;1.00;;;-0.80;99.90;;;;;;5006900;28;20205;-85
2021/03/09 08:03:30;;;;;;;2.33;1.20;;;-0.30;99.90;;;;;;5023416;28;20217;-81
2021/03/09 08:06:01;;;;;;;2.63;1.10;;;0.10;99.90;;;;;;5027866;28;20289;-82
2021/03/09 08:08:47;;;;;;;2.53;1.23;;;0.20;99.90;;;;;;5009615;28;20195;-82
2021/03/09 08:11:23;;;;;;;1.10;1.00;;;0.30;99.90;;;;;;5008301;28;20202;-81
2021/03/09 08:14:09;;;;;;;6.50;3.65;;;0.40;99.90;;;;;;5022284;28;20659;-82
2021/03/09 08:16:40;;;;;;;2.30;1.52;;;0.50;99.90;;;;;;5023609;28;20205;-82
2021/03/09 08:19:10;;;;;;;2.83;1.50;;;0.60;99.90;;;;;;5023193;28;20739;-84
2021/03/09 08:21:39;;;;;;;2.88;1.85;;;0.70;99.90;;;;;;5023538;28;20538;-85
2021/03/09 08:24:05;;;;;;;5.85;1.42;;;0.90;99.90;;;;;;5021547;28;20259;-84
2021/03/09 08:26:31;;;;;;;4.10;1.25;;;1.20;99.90;;;;;;5020662;28;20210;-84
2021/03/09 08:28:57;;;;;;;5.38;1.42;;;1.20;99.90;;;;;;5010342;28;20271;-80
2021/03/09 08:31:26;;;;;;;1.92;1.40;;;1.20;99.90;;;;;;5006252;28;20217;-84
2021/03/09 08:34:07;;;;;;;5.97;1.90;;;1.30;99.90;;;;;;5028070;28;20249;-86
2021/03/09 08:36:35;;;;;;;5.35;1.70;;;1.60;99.90;;;;;;5024807;28;20977;-84
2021/03/09 08:41:38;;;;;;;2.28;1.20;;;2.50;99.90;;;;;;5020931;28;20286;-85
2021/03/09 08:44:23;;;;;;;4.20;1.27;;;2.80;99.90;;;;;;5021531;28;20229;-84
2021/03/09 08:47:10;;;;;;;3.92;1.08;;;2.90;99.90;;;;;;5003561;28;20740;-84
2021/03/09 08:49:36;;;;;;;1.75;1.10;;;2.40;99.90;;;;;;5025178;28;20206;-84
2021/03/09 08:52:29;;;;;;;3.30;1.50;;;2.30;99.90;;;;;;5022783;28;20444;-83
2021/03/09 08:54:56;;;;;;;3.45;1.23;;;2.10;99.90;;;;;;5014318;28;20318;-83
2021/03/09 08:57:21;;;;;;;1.20;1.10;;;1.90;99.90;;;;;;5009484;28;20222;-84
2021/03/09 08:59:49;;;;;;;6.57;1.20;;;1.80;99.90;;;;;;5018606;28;20198;-84
2021/03/09 09:02:20;;;;;;;2.45;1.00;;;1.70;99.90;;;;;;5000345;28;20668;-83
2021/03/09 09:05:06;;;;;;;3.35;1.30;;;1.80;99.90;;;;;;5026239;28;20205;-85
2021/03/09 09:07:37;;;;;;;3.15;1.20;;;1.80;99.90;;;;;;5028434;28;21304;-84
2021/03/09 09:10:19;;;;;;;3.53;1.20;;;1.90;99.90;;;;;;5027648;28;20653;-83
2021/03/09 09:12:47;;;;;;;3.05;1.83;;;1.80;99.90;;;;;;5006459;28;20194;-84
2021/03/09 09:15:15;;;;;;;1.52;1.20;;;2.00;99.90;;;;;;5028410;28;20202;-83
2021/03/09 09:17:47;;;;;;;4.63;1.30;;;2.20;99.90;;;;;;5028001;28;20218;-83
2021/03/09 09:20:19;;;;;;;2.83;1.02;;;2.30;99.90;;;;;;5007905;28;20212;-81
2021/03/09 09:22:45;;;;;;;4.57;1.65;;;2.20;99.90;;;;;;5024665;28;20714;-80
2021/03/09 09:25:13;;;;;;;6.22;1.00;;;2.10;99.90;;;;;;5027558;28;20206;-84
2021/03/09 09:27:49;;;;;;;1.35;0.90;;;1.90;99.90;;;;;;5013518;28;20213;-84
2021/03/09 09:30:22;;;;;;;1.50;1.30;;;1.80;99.90;;;;;;5025676;28;20279;-83
2021/03/09 09:32:53;;;;;;;4.13;1.25;;;1.70;99.90;;;;;;5010983;28;20652;-84
2021/03/09 09:35:21;;;;;;;3.65;1.08;;;1.70;99.90;;;;;;5013259;28;20229;-83
2021/03/09 09:38:14;;;;;;;3.15;1.52;;;1.80;99.90;;;;;;5013775;28;20683;-84
2021/03/09 09:40:46;;;;;;;1.20;1.10;;;1.90;99.90;;;;;;5016786;28;20198;-84
2021/03/09 09:43:20;;;;;;;2.22;1.38;;;2.00;99.90;;;;;;5032757;28;20251;-83
2021/03/09 09:45:56;;;;;;;1.40;1.08;;;2.10;99.90;;;;;;5009744;28;20671;-83
2021/03/09 09:48:24;;;;;;;4.60;1.38;;;2.20;99.90;;;;;;5031826;28;20221;-83
2021/03/09 09:50:56;;;;;;;6.05;1.95;;;2.30;99.90;;;;;;5027774;28;20194;-84
2021/03/09 09:53:35;;;;;;;1.35;1.13;;;2.40;99.90;;;;;;5009880;28;20202;-83
2021/03/09 09:56:02;;;;;;;6.72;1.00;;;2.40;99.90;;;;;;5002113;28;20278;-84
2021/03/09 09:58:46;;;;;;;2.08;1.00;;;2.50;99.90;;;;;;5002766;28;20990;-84
2021/03/09 10:01:15;;;;;;;3.05;1.08;;;2.50;99.90;;;;;;5020918;28;20238;-85
2021/03/09 10:03:56;;;;;;;1.30;0.90;;;2.70;99.90;;;;;;5020527;28;20225;-83
2021/03/09 10:06:24;;;;;;;0.90;0.90;;;2.70;99.90;;;;;;5024866;28;20285;-81
2021/03/09 10:08:51;;;;;;;1.00;0.90;;;2.80;99.90;;;;;;5021271;28;20221;-82
2021/03/09 10:11:17;;;;;;;2.05;1.38;;;2.90;99.90;;;;;;5011452;28;20217;-83
2021/03/09 10:13:44;;;;;;;1.90;1.30;;;2.90;99.90;;;;;;5013330;28;20542;-82
2021/03/09 10:16:09;;;;;;;2.95;1.50;;;2.90;99.90;;;;;;5024137;28;20202;-83
2021/03/09 10:18:37;;;;;;;5.78;3.67;;;3.00;99.90;;;;;;5019484;28;20201;-82
2021/03/09 10:21:15;;;;;;;1.38;1.02;;;3.00;99.90;;;;;;5024641;28;20194;-83
2021/03/09 10:23:58;;;;;;;3.90;2.45;;;2.90;99.90;;;;;;5012938;28;20731;-83
2021/03/09 10:26:32;;;;;;;26.90;16.30;;;2.80;99.90;;;;;;5002530;28;20219;-83
2021/03/09 10:29:19;;;;;;;3.67;2.05;;;2.70;99.90;;;;;;5003170;28;20210;-83
2021/03/09 10:31:52;;;;;;;1.63;1.20;;;2.60;99.90;;;;;;5025167;28;20244;-80
2021/03/09 10:34:39;;;;;;;4.22;2.08;;;2.60;99.90;;;;;;5009869;28;20198;-83
2021/03/09 10:37:06;;;;;;;7.25;4.68;;;2.60;99.90;;;;;;5007675;28;20248;-84
2021/03/09 10:39:34;;;;;;;3.30;2.38;;;2.70;99.90;;;;;;5012606;28;20207;-82
2021/03/09 10:42:39;;;;;;;8.50;3.90;;;2.80;99.90;;;;;;5020055;28;20195;-84
2021/03/09 10:45:18;;;;;;;1.38;1.20;;;2.80;99.90;;;;;;5013000;28;20977;-83
2021/03/09 10:47:59;;;;;;;2.97;2.17;;;2.90;99.90;;;;;;5021161;28;20194;-83
2021/03/09 10:50:27;;;;;;;1.17;0.90;;;2.90;99.90;;;;;;5014178;28;20202;-83
2021/03/09 10:52:54;;;;;;;2.17;1.05;;;2.90;99.90;;;;;;5011625;28;20190;-83
2021/03/09 10:55:21;;;;;;;2.03;1.17;;;3.10;99.90;;;;;;5004644;28;20226;-82
2021/03/09 10:57:46;;;;;;;2.38;1.10;;;3.30;99.90;;;;;;5001640;28;20206;-83
2021/03/09 11:00:18;;;;;;;3.22;1.13;;;3.40;99.90;;;;;;5007940;28;20210;-84
2021/03/09 11:02:45;;;;;;;1.17;1.08;;;3.50;99.90;;;;;;5010462;28;20248;-83
2021/03/09 11:05:12;;;;;;;1.58;1.00;;;3.90;99.90;;;;;;5003523;28;20209;-85
2021/03/09 11:07:38;;;;;;;1.00;0.82;;;4.00;99.90;;;;;;5018856;28;20201;-83
2021/03/09 11:10:06;;;;;;;2.10;1.02;;;4.00;99.90;;;;;;5018427;28;20298;-86
2021/03/09 11:12:31;;;;;;;1.23;1.02;;;4.20;99.90;;;;;;5018351;28;20194;-84
2021/03/09 11:14:57;;;;;;;2.20;1.27;;;4.40;99.90;;;;;;5012750;28;20199;-83
2021/03/09 11:17:23;;;;;;;1.77;1.10;;;4.70;99.90;;;;;;5008814;28;20198;-83
2021/03/09 11:19:49;;;;;;;4.35;1.65;;;5.00;99.90;;;;;;5009720;28;20957;-83
2021/03/09 11:22:16;;;;;;;1.63;1.08;;;5.30;99.90;;;;;;5021266;28;20728;-83
2021/03/09 11:24:42;;;;;;;9.48;3.30;;;5.30;99.90;;;;;;5022854;28;20229;-81
2021/03/09 11:27:09;;;;;;;3.08;1.38;;;5.30;99.90;;;;;;5028332;28;20672;-83
2021/03/09 11:29:36;;;;;;;4.53;1.40;;;5.40;99.90;;;;;;5026074;28;20209;-83
2021/03/09 11:32:05;;;;;;;3.35;1.20;;;5.70;99.90;;;;;;5009700;28;20203;-83
2021/03/09 11:34:31;;;;;;;1.17;1.00;;;6.00;99.90;;;;;;5019003;28;20226;-86
2021/03/09 11:36:57;;;;;;;1.95;1.23;;;6.20;99.90;;;;;;5014651;28;20202;-84
2021/03/09 11:39:23;;;;;;;2.17;1.20;;;6.20;99.90;;;;;;5009503;28;20708;-82
2021/03/09 11:41:50;;;;;;;2.42;1.15;;;6.30;99.90;;;;;;5020390;28;20234;-82
2021/03/09 11:44:16;;;;;;;2.80;1.30;;;6.40;99.90;;;;;;5000689;28;20202;-81
2021/03/09 11:46:42;;;;;;;1.77;1.10;;;6.00;99.90;;;;;;5017291;28;21123;-80
2021/03/09 11:49:08;;;;;;;2.78;1.40;;;5.80;99.90;;;;;;5020345;28;20293;-79
2021/03/09 11:51:34;;;;;;;2.53;1.13;;;6.00;99.90;;;;;;5024095;28;20882;-79
2021/03/09 11:54:00;;;;;;;1.40;1.10;;;6.10;99.90;;;;;;5019777;28;20186;-80
2021/03/09 11:56:26;;;;;;;4.68;1.27;;;6.30;99.90;;;;;;5017401;28;20560;-80
2021/03/09 11:58:52;;;;;;;2.53;0.90;;;6.50;99.90;;;;;;5017923;28;20248;-81
2021/03/09 12:01:19;;;;;;;1.05;0.95;;;6.40;99.90;;;;;;5015053;28;20197;-81
2021/03/09 12:03:45;;;;;;;2.03;1.10;;;6.10;99.90;;;;;;5018880;28;20214;-83
2021/03/09 12:06:11;;;;;;;1.10;1.00;;;6.10;99.90;;;;;;5010581;28;20244;-84
2021/03/09 12:08:37;;;;;;;0.90;0.90;;;6.50;99.90;;;;;;5027330;28;20226;-84
2021/03/09 12:11:02;;;;;;;1.75;0.90;;;6.70;99.90;;;;;;5002979;28;20202;-84
2021/03/09 12:13:28;;;;;;;1.20;1.00;;;6.60;99.90;;;;;;5001608;28;20326;-85
2021/03/09 12:15:54;;;;;;;2.25;0.98;;;6.90;99.90;;;;;;5011152;28;20202;-84
2021/03/09 12:18:19;;;;;;;4.45;1.00;;;7.20;99.90;;;;;;5008020;28;20241;-85
2021/03/09 12:20:45;;;;;;;1.23;0.90;;;7.60;99.90;;;;;;5008837;28;20240;-83
2021/03/09 12:23:12;;;;;;;1.48;0.95;;;7.90;99.90;;;;;;5022739;28;20199;-85
2021/03/09 12:25:38;;;;;;;1.73;0.90;;;7.90;99.90;;;;;;5023361;28;21266;-85
2021/03/09 12:28:05;;;;;;;2.53;0.90;;;7.80;99.90;;;;;;5016786;28;20241;-85
2021/03/09 12:30:31;;;;;;;0.93;0.80;;;7.70;99.90;;;;;;5023894;28;20546;-83
2021/03/09 12:32:56;;;;;;;1.15;0.93;;;7.00;99.90;;;;;;5011960;28;20216;-84
2021/03/09 12:35:22;;;;;;;1.95;0.77;;;6.40;99.90;;;;;;5011709;28;20229;-85
2021/03/09 12:37:48;;;;;;;0.75;0.75;;;6.40;99.90;;;;;;5024747;28;20212;-84
2021/03/09 12:40:14;;;;;;;0.70;0.70;;;6.70;99.90;;;;;;5030058;28;20681;-84
2021/03/09 12:42:40;;;;;;;1.00;0.90;;;6.70;99.90;;;;;;5025931;28;20281;-86
2021/03/09 12:45:06;;;;;;;3.17;1.55;;;7.00;99.90;;;;;;5024744;28;20560;-87
2021/03/09 12:47:32;;;;;;;1.48;0.93;;;7.00;99.90;;;;;;5025659;28;20268;-85
2021/03/09 12:49:58;;;;;;;0.70;0.70;;;7.10;99.40;;;;;;5010015;28;20206;-85
2021/03/09 12:52:24;;;;;;;0.70;0.70;;;7.00;95.10;;;;;;5011387;28;20690;-85
2021/03/09 12:54:50;;;;;;;0.70;0.70;;;6.30;95.60;;;;;;5012299;28;20290;-86
2021/03/09 12:57:16;;;;;;;0.70;0.70;;;5.80;95.40;;;;;;5013685;28;20335;-85
2021/03/09 12:59:42;;;;;;;0.60;0.60;;;5.40;97.50;;;;;;5008439;28;20308;-84
2021/03/09 13:02:07;;;;;;;3.22;0.77;;;5.50;97.20;;;;;;5012193;28;20201;-86
2021/03/09 13:04:33;;;;;;;0.80;0.80;;;5.80;95.70;;;;;;5009685;28;20248;-87
2021/03/09 13:06:59;;;;;;;0.70;0.70;;;6.00;95.50;;;;;;5026535;28;20197;-85